sensor_id;sensor_type;location;lat;lon;timestamp;noise_LAeq;noise_LA_min;noise_LA_max;noise_LA01;noise_LA95
4048;Laerm;2038;51.728;6.674;2024-02-26T00:00:58;35.81;26.91;39.92;;
4048;Laerm;2038;51.728;6.674;2024-02-26T00:03:25;35.73;5.00;39.08;;
4048;Laerm;2038;51.728;6.674;2024-02-26T00:05:51;35.78;26.91;39.58;;
4048;Laerm;2038;51.728;6.674;2024-02-26T00:08:17;35.77;23.90;39.08;;
4048;Laerm;2038;51.728;6.674;2024-02-26T00:10:43;35.78;26.91;39.08;;
4048;Laerm;2038;51.728;6.674;2024-02-26T00:13:10;35.74;26.91;38.95;;
4048;Laerm;2038;51.728;6.674;2024-02-26T00:15:36;35.71;26.91;39.58;;
4048;Laerm;2038;51.728;6.674;2024-02-26T00:18:02;35.74;23.90;39.21;;
4048;Laerm;2038;51.728;6.674;2024-02-26T00:20:28;35.74;26.91;39.08;;
4048;Laerm;2038;51.728;6.674;2024-02-26T00:22:55;35.75;26.91;38.95;;
4048;Laerm;2038;51.728;6.674;2024-02-26T00:25:21;35.77;23.90;39.34;;
4048;Laerm;2038;51.728;6.674;2024-02-26T00:27:47;35.77;5.00;39.21;;
4048;Laerm;2038;51.728;6.674;2024-02-26T00:30:14;35.75;26.91;39.21;;
4048;Laerm;2038;51.728;6.674;2024-02-26T00:32:40;35.74;26.91;39.34;;
4048;Laerm;2038;51.728;6.674;2024-02-26T00:35:07;35.75;26.91;39.21;;
4048;Laerm;2038;51.728;6.674;2024-02-26T00:37:33;35.78;23.90;39.46;;
4048;Laerm;2038;51.728;6.674;2024-02-26T00:39:59;35.78;26.91;39.34;;
4048;Laerm;2038;51.728;6.674;2024-02-26T00:42:26;35.76;26.91;39.08;;
4048;Laerm;2038;51.728;6.674;2024-02-26T00:44:52;35.70;23.90;39.92;;
4048;Laerm;2038;51.728;6.674;2024-02-26T00:47:18;35.72;5.00;38.95;;
4048;Laerm;2038;51.728;6.674;2024-02-26T00:49:44;35.77;26.91;39.21;;
4048;Laerm;2038;51.728;6.674;2024-02-26T00:52:11;35.75;23.90;39.21;;
4048;Laerm;2038;51.728;6.674;2024-02-26T00:54:37;35.74;26.91;39.08;;
4048;Laerm;2038;51.728;6.674;2024-02-26T00:57:03;35.75;5.00;39.08;;
4048;Laerm;2038;51.728;6.674;2024-02-26T00:59:29;35.78;26.91;39.08;;
4048;Laerm;2038;51.728;6.674;2024-02-26T01:01:56;35.72;26.56;39.46;;
4048;Laerm;2038;51.728;6.674;2024-02-26T01:04:22;35.79;28.67;39.34;;
4048;Laerm;2038;51.728;6.674;2024-02-26T01:06:48;35.75;26.91;39.46;;
4048;Laerm;2038;51.728;6.674;2024-02-26T01:09:14;35.72;26.91;39.46;;
4048;Laerm;2038;51.728;6.674;2024-02-26T01:11:41;35.75;23.90;39.58;;
4048;Laerm;2038;51.728;6.674;2024-02-26T01:14:07;35.75;26.91;39.57;;
4048;Laerm;2038;51.728;6.674;2024-02-26T01:16:34;35.78;26.91;39.34;;
4048;Laerm;2038;51.728;6.674;2024-02-26T01:19:00;35.72;26.91;39.08;;
4048;Laerm;2038;51.728;6.674;2024-02-26T01:21:26;35.75;23.90;38.95;;
4048;Laerm;2038;51.728;6.674;2024-02-26T01:23:55;35.72;26.91;39.21;;
4048;Laerm;2038;51.728;6.674;2024-02-26T01:26:21;35.73;26.56;39.08;;
4048;Laerm;2038;51.728;6.674;2024-02-26T01:28:48;35.74;23.90;39.08;;
4048;Laerm;2038;51.728;6.674;2024-02-26T01:31:14;35.72;26.91;39.21;;
4048;Laerm;2038;51.728;6.674;2024-02-26T01:33:40;35.76;23.90;39.34;;
4048;Laerm;2038;51.728;6.674;2024-02-26T01:36:07;35.75;23.90;38.95;;
4048;Laerm;2038;51.728;6.674;2024-02-26T01:38:33;35.76;26.91;39.08;;
4048;Laerm;2038;51.728;6.674;2024-02-26T01:40:59;35.74;26.91;38.81;;
4048;Laerm;2038;51.728;6.674;2024-02-26T01:43:25;35.75;23.90;39.21;;
4048;Laerm;2038;51.728;6.674;2024-02-26T01:45:52;35.73;23.90;39.08;;
4048;Laerm;2038;51.728;6.674;2024-02-26T01:48:18;35.72;26.91;39.46;;
4048;Laerm;2038;51.728;6.674;2024-02-26T01:50:44;35.77;26.56;38.95;;
4048;Laerm;2038;51.728;6.674;2024-02-26T01:53:11;35.74;23.90;39.58;;
4048;Laerm;2038;51.728;6.674;2024-02-26T01:55:38;35.75;23.90;38.95;;
4048;Laerm;2038;51.728;6.674;2024-02-26T01:58:05;35.75;23.90;39.46;;
4048;Laerm;2038;51.728;6.674;2024-02-26T02:00:32;35.78;23.90;39.08;;
4048;Laerm;2038;51.728;6.674;2024-02-26T02:02:58;35.73;26.91;38.95;;
4048;Laerm;2038;51.728;6.674;2024-02-26T02:05:25;35.75;23.90;38.81;;
4048;Laerm;2038;51.728;6.674;2024-02-26T02:07:52;35.78;5.00;39.34;;
4048;Laerm;2038;51.728;6.674;2024-02-26T02:10:19;35.76;23.90;39.34;;
4048;Laerm;2038;51.728;6.674;2024-02-26T02:12:49;35.78;23.90;39.70;;
4048;Laerm;2038;51.728;6.674;2024-02-26T02:15:15;35.75;23.90;39.21;;
4048;Laerm;2038;51.728;6.674;2024-02-26T02:17:42;35.74;23.90;39.58;;
4048;Laerm;2038;51.728;6.674;2024-02-26T02:20:17;35.77;23.90;39.21;;
4048;Laerm;2038;51.728;6.674;2024-02-26T02:22:47;35.80;26.91;39.08;;
4048;Laerm;2038;51.728;6.674;2024-02-26T02:25:14;35.79;26.91;39.34;;
4048;Laerm;2038;51.728;6.674;2024-02-26T02:27:42;35.74;26.91;39.21;;
4048;Laerm;2038;51.728;6.674;2024-02-26T02:30:10;35.75;26.91;39.21;;
4048;Laerm;2038;51.728;6.674;2024-02-26T02:32:39;35.78;23.90;39.08;;
4048;Laerm;2038;51.728;6.674;2024-02-26T02:35:07;35.76;23.90;39.21;;
4048;Laerm;2038;51.728;6.674;2024-02-26T02:37:34;35.75;26.91;38.81;;
4048;Laerm;2038;51.728;6.674;2024-02-26T02:40:00;35.75;23.90;39.08;;
4048;Laerm;2038;51.728;6.674;2024-02-26T02:42:27;35.73;23.90;39.11;;
4048;Laerm;2038;51.728;6.674;2024-02-26T02:44:53;35.74;26.91;38.99;;
4048;Laerm;2038;51.728;6.674;2024-02-26T02:47:19;35.75;28.67;39.70;;
4048;Laerm;2038;51.728;6.674;2024-02-26T02:49:46;35.76;23.90;38.99;;
4048;Laerm;2038;51.728;6.674;2024-02-26T02:52:12;35.76;23.90;39.08;;
4048;Laerm;2038;51.728;6.674;2024-02-26T02:54:38;35.79;28.67;39.58;;
4048;Laerm;2038;51.728;6.674;2024-02-26T02:57:10;35.74;23.90;39.08;;
4048;Laerm;2038;51.728;6.674;2024-02-26T02:59:37;35.77;26.91;39.46;;
4048;Laerm;2038;51.728;6.674;2024-02-26T03:02:03;35.76;5.00;39.21;;
4048;Laerm;2038;51.728;6.674;2024-02-26T03:04:30;35.73;23.90;39.08;;
4048;Laerm;2038;51.728;6.674;2024-02-26T03:06:57;35.77;26.91;38.95;;
4048;Laerm;2038;51.728;6.674;2024-02-26T03:09:23;35.74;23.90;39.08;;
4048;Laerm;2038;51.728;6.674;2024-02-26T03:11:50;35.76;23.90;39.21;;
4048;Laerm;2038;51.728;6.674;2024-02-26T03:14:16;35.81;26.91;38.95;;
4048;Laerm;2038;51.728;6.674;2024-02-26T03:16:42;35.75;26.91;39.08;;
4048;Laerm;2038;51.728;6.674;2024-02-26T03:19:08;35.74;26.91;38.95;;
4048;Laerm;2038;51.728;6.674;2024-02-26T03:21:35;35.77;28.67;39.08;;
4048;Laerm;2038;51.728;6.674;2024-02-26T03:24:01;35.77;23.90;39.46;;
4048;Laerm;2038;51.728;6.674;2024-02-26T03:26:28;35.78;23.90;39.81;;
4048;Laerm;2038;51.728;6.674;2024-02-26T03:28:54;35.80;26.91;39.08;;
4048;Laerm;2038;51.728;6.674;2024-02-26T03:31:20;35.79;23.90;39.46;;
4048;Laerm;2038;51.728;6.674;2024-02-26T03:33:48;35.78;23.90;39.34;;
4048;Laerm;2038;51.728;6.674;2024-02-26T03:36:14;35.82;23.90;39.92;;
4048;Laerm;2038;51.728;6.674;2024-02-26T03:38:41;35.79;5.00;39.08;;
4048;Laerm;2038;51.728;6.674;2024-02-26T03:41:07;35.80;23.90;39.08;;
4048;Laerm;2038;51.728;6.674;2024-02-26T03:43:34;35.80;26.91;39.21;;
4048;Laerm;2038;51.728;6.674;2024-02-26T03:46:00;35.76;26.91;39.21;;
4048;Laerm;2038;51.728;6.674;2024-02-26T03:48:27;35.78;26.91;39.21;;
4048;Laerm;2038;51.728;6.674;2024-02-26T03:50:53;35.83;26.91;39.21;;
4048;Laerm;2038;51.728;6.674;2024-02-26T03:53:19;35.82;23.90;39.21;;
4048;Laerm;2038;51.728;6.674;2024-02-26T03:55:46;35.80;26.91;39.34;;
4048;Laerm;2038;51.728;6.674;2024-02-26T03:58:13;35.79;23.90;39.21;;
4048;Laerm;2038;51.728;6.674;2024-02-26T04:00:39;35.80;26.91;39.34;;
4048;Laerm;2038;51.728;6.674;2024-02-26T04:03:06;35.79;26.91;39.08;;
4048;Laerm;2038;51.728;6.674;2024-02-26T04:05:32;35.78;26.91;39.46;;
4048;Laerm;2038;51.728;6.674;2024-02-26T04:07:58;35.78;26.91;39.08;;
4048;Laerm;2038;51.728;6.674;2024-02-26T04:10:24;35.83;26.91;39.34;;
4048;Laerm;2038;51.728;6.674;2024-02-26T04:12:51;35.80;23.90;39.21;;
4048;Laerm;2038;51.728;6.674;2024-02-26T04:15:17;35.79;23.90;39.46;;
4048;Laerm;2038;51.728;6.674;2024-02-26T04:17:43;35.82;23.90;39.70;;
4048;Laerm;2038;51.728;6.674;2024-02-26T04:20:15;35.81;26.91;39.34;;
4048;Laerm;2038;51.728;6.674;2024-02-26T04:22:43;35.80;5.00;39.21;;
4048;Laerm;2038;51.728;6.674;2024-02-26T04:25:09;35.80;5.00;38.95;;
4048;Laerm;2038;51.728;6.674;2024-02-26T04:27:37;35.83;28.67;39.21;;
4048;Laerm;2038;51.728;6.674;2024-02-26T04:30:06;35.83;26.91;39.21;;
4048;Laerm;2038;51.728;6.674;2024-02-26T04:32:32;35.80;26.91;39.58;;
4048;Laerm;2038;51.728;6.674;2024-02-26T04:35:01;35.81;23.90;39.34;;
4048;Laerm;2038;51.728;6.674;2024-02-26T04:37:27;35.77;5.00;39.34;;
4048;Laerm;2038;51.728;6.674;2024-02-26T04:39:58;35.82;26.91;39.34;;
4048;Laerm;2038;51.728;6.674;2024-02-26T04:42:25;35.76;26.91;39.21;;
4048;Laerm;2038;51.728;6.674;2024-02-26T04:44:52;35.80;26.91;38.95;;
4048;Laerm;2038;51.728;6.674;2024-02-26T04:47:18;35.82;26.91;39.21;;
4048;Laerm;2038;51.728;6.674;2024-02-26T04:49:44;35.82;26.91;39.21;;
4048;Laerm;2038;51.728;6.674;2024-02-26T04:52:11;35.82;26.91;39.08;;
4048;Laerm;2038;51.728;6.674;2024-02-26T04:54:37;35.79;23.90;38.95;;
4048;Laerm;2038;51.728;6.674;2024-02-26T04:57:04;35.82;26.91;39.34;;
4048;Laerm;2038;51.728;6.674;2024-02-26T04:59:30;35.84;26.91;39.08;;
4048;Laerm;2038;51.728;6.674;2024-02-26T05:01:57;35.79;23.90;39.34;;
4048;Laerm;2038;51.728;6.674;2024-02-26T05:04:23;35.80;23.90;39.46;;
4048;Laerm;2038;51.728;6.674;2024-02-26T05:06:49;35.78;26.91;39.34;;
4048;Laerm;2038;51.728;6.674;2024-02-26T05:09:15;35.83;26.91;39.34;;
4048;Laerm;2038;51.728;6.674;2024-02-26T05:11:42;35.83;26.91;39.21;;
4048;Laerm;2038;51.728;6.674;2024-02-26T05:14:09;35.81;5.00;39.92;;
4048;Laerm;2038;51.728;6.674;2024-02-26T05:16:35;35.82;23.90;39.08;;
4048;Laerm;2038;51.728;6.674;2024-02-26T05:19:01;35.78;26.91;39.81;;
4048;Laerm;2038;51.728;6.674;2024-02-26T05:21:28;35.81;23.90;39.34;;
4048;Laerm;2038;51.728;6.674;2024-02-26T05:23:55;35.80;26.91;39.34;;
4048;Laerm;2038;51.728;6.674;2024-02-26T05:26:22;35.84;5.00;39.34;;
4048;Laerm;2038;51.728;6.674;2024-02-26T05:28:49;35.82;23.90;39.46;;
4048;Laerm;2038;51.728;6.674;2024-02-26T05:31:16;35.80;26.91;39.11;;
4048;Laerm;2038;51.728;6.674;2024-02-26T05:33:42;35.78;23.90;39.21;;
4048;Laerm;2038;51.728;6.674;2024-02-26T05:36:09;35.79;26.91;39.34;;
4048;Laerm;2038;51.728;6.674;2024-02-26T05:38:35;35.82;28.67;39.58;;
4048;Laerm;2038;51.728;6.674;2024-02-26T05:41:02;35.77;5.00;39.08;;
4048;Laerm;2038;51.728;6.674;2024-02-26T05:43:28;35.81;26.91;39.34;;
4048;Laerm;2038;51.728;6.674;2024-02-26T05:45:55;35.79;23.90;39.34;;
4048;Laerm;2038;51.728;6.674;2024-02-26T05:48:22;35.80;26.91;39.08;;
4048;Laerm;2038;51.728;6.674;2024-02-26T05:50:48;35.82;23.90;38.95;;
4048;Laerm;2038;51.728;6.674;2024-02-26T05:53:15;35.80;5.00;39.21;;
4048;Laerm;2038;51.728;6.674;2024-02-26T05:55:41;35.78;26.91;39.21;;
4048;Laerm;2038;51.728;6.674;2024-02-26T05:58:07;35.79;26.91;39.34;;
4048;Laerm;2038;51.728;6.674;2024-02-26T06:00:33;35.76;26.91;38.95;;
4048;Laerm;2038;51.728;6.674;2024-02-26T06:03:00;35.80;26.91;39.08;;
4048;Laerm;2038;51.728;6.674;2024-02-26T06:05:28;35.84;26.56;38.95;;
4048;Laerm;2038;51.728;6.674;2024-02-26T06:07:54;35.78;26.56;39.34;;
4048;Laerm;2038;51.728;6.674;2024-02-26T06:10:21;35.76;26.91;39.21;;
4048;Laerm;2038;51.728;6.674;2024-02-26T06:12:47;35.82;26.91;39.08;;
4048;Laerm;2038;51.728;6.674;2024-02-26T06:15:14;35.80;23.90;39.34;;
4048;Laerm;2038;51.728;6.674;2024-02-26T06:17:40;35.82;26.91;39.08;;
4048;Laerm;2038;51.728;6.674;2024-02-26T06:20:07;35.79;23.90;39.08;;
4048;Laerm;2038;51.728;6.674;2024-02-26T06:22:40;35.80;28.32;39.81;;
4048;Laerm;2038;51.728;6.674;2024-02-26T06:25:07;35.76;23.90;40.03;;
4048;Laerm;2038;51.728;6.674;2024-02-26T06:27:35;35.81;23.90;39.08;;
4048;Laerm;2038;51.728;6.674;2024-02-26T06:30:01;35.81;26.91;39.21;;
4048;Laerm;2038;51.728;6.674;2024-02-26T06:32:27;35.80;26.91;39.21;;
4048;Laerm;2038;51.728;6.674;2024-02-26T06:34:55;35.81;23.90;39.58;;
4048;Laerm;2038;51.728;6.674;2024-02-26T06:37:22;35.81;5.00;39.46;;
4048;Laerm;2038;51.728;6.674;2024-02-26T06:39:48;35.83;23.55;39.08;;
4048;Laerm;2038;51.728;6.674;2024-02-26T06:42:15;35.82;28.67;39.46;;
4048;Laerm;2038;51.728;6.674;2024-02-26T06:44:41;35.85;23.90;38.99;;
4048;Laerm;2038;51.728;6.674;2024-02-26T06:47:07;35.83;23.90;39.46;;
4048;Laerm;2038;51.728;6.674;2024-02-26T06:49:33;35.82;23.90;39.34;;
4048;Laerm;2038;51.728;6.674;2024-02-26T06:52:00;35.79;26.91;39.70;;
4048;Laerm;2038;51.728;6.674;2024-02-26T06:54:26;35.82;23.90;39.21;;
4048;Laerm;2038;51.728;6.674;2024-02-26T06:56:52;35.78;26.91;39.34;;
4048;Laerm;2038;51.728;6.674;2024-02-26T06:59:19;35.83;26.91;39.70;;
4048;Laerm;2038;51.728;6.674;2024-02-26T07:01:46;35.78;26.91;39.08;;
4048;Laerm;2038;51.728;6.674;2024-02-26T07:04:12;35.81;5.00;39.81;;
4048;Laerm;2038;51.728;6.674;2024-02-26T07:06:38;35.82;28.67;39.46;;
4048;Laerm;2038;51.728;6.674;2024-02-26T07:09:05;35.80;23.90;38.95;;
4048;Laerm;2038;51.728;6.674;2024-02-26T07:11:31;35.77;5.00;39.34;;
4048;Laerm;2038;51.728;6.674;2024-02-26T07:13:57;35.82;26.91;39.34;;
4048;Laerm;2038;51.728;6.674;2024-02-26T07:16:24;35.83;28.67;39.21;;
4048;Laerm;2038;51.728;6.674;2024-02-26T07:18:50;35.81;5.00;39.46;;
4048;Laerm;2038;51.728;6.674;2024-02-26T07:21:16;35.83;23.90;39.70;;
4048;Laerm;2038;51.728;6.674;2024-02-26T07:23:42;35.82;26.91;39.08;;
4048;Laerm;2038;51.728;6.674;2024-02-26T07:26:09;35.83;23.90;39.34;;
4048;Laerm;2038;51.728;6.674;2024-02-26T07:28:38;35.79;26.91;39.08;;
4048;Laerm;2038;51.728;6.674;2024-02-26T07:31:04;35.80;23.90;39.58;;
4048;Laerm;2038;51.728;6.674;2024-02-26T07:33:30;35.78;26.91;39.08;;
4048;Laerm;2038;51.728;6.674;2024-02-26T07:35:56;35.80;23.90;39.21;;
4048;Laerm;2038;51.728;6.674;2024-02-26T07:38:23;35.80;23.90;39.21;;
4048;Laerm;2038;51.728;6.674;2024-02-26T07:40:50;35.82;26.91;39.46;;
4048;Laerm;2038;51.728;6.674;2024-02-26T07:43:16;35.82;23.90;40.03;;
4048;Laerm;2038;51.728;6.674;2024-02-26T07:45:42;35.81;23.90;39.58;;
4048;Laerm;2038;51.728;6.674;2024-02-26T07:48:08;35.83;26.91;39.21;;
4048;Laerm;2038;51.728;6.674;2024-02-26T07:50:35;35.83;28.32;39.58;;
4048;Laerm;2038;51.728;6.674;2024-02-26T07:53:01;35.81;28.67;39.70;;
4048;Laerm;2038;51.728;6.674;2024-02-26T07:55:28;35.83;23.90;39.21;;
4048;Laerm;2038;51.728;6.674;2024-02-26T07:57:54;35.81;26.91;39.81;;
4048;Laerm;2038;51.728;6.674;2024-02-26T08:00:20;35.82;26.91;39.08;;
4048;Laerm;2038;51.728;6.674;2024-02-26T08:02:47;35.84;26.91;39.46;;
4048;Laerm;2038;51.728;6.674;2024-02-26T08:05:13;35.82;26.91;39.08;;
4048;Laerm;2038;51.728;6.674;2024-02-26T08:07:40;35.83;26.91;38.95;;
4048;Laerm;2038;51.728;6.674;2024-02-26T08:10:07;35.84;28.32;39.34;;
4048;Laerm;2038;51.728;6.674;2024-02-26T08:12:34;35.86;26.91;39.81;;
4048;Laerm;2038;51.728;6.674;2024-02-26T08:15:00;35.85;26.91;39.58;;
4048;Laerm;2038;51.728;6.674;2024-02-26T08:17:27;35.87;23.90;39.08;;
4048;Laerm;2038;51.728;6.674;2024-02-26T08:19:53;35.84;23.90;39.34;;
4048;Laerm;2038;51.728;6.674;2024-02-26T08:22:20;35.87;5.00;39.70;;
4048;Laerm;2038;51.728;6.674;2024-02-26T08:24:46;35.85;28.67;39.70;;
4048;Laerm;2038;51.728;6.674;2024-02-26T08:27:12;35.82;23.90;39.08;;
4048;Laerm;2038;51.728;6.674;2024-02-26T08:29:39;35.86;23.90;39.34;;
4048;Laerm;2038;51.728;6.674;2024-02-26T08:32:05;35.85;23.90;39.58;;
4048;Laerm;2038;51.728;6.674;2024-02-26T08:34:33;35.84;28.67;38.99;;
4048;Laerm;2038;51.728;6.674;2024-02-26T08:36:59;35.86;26.91;39.34;;
4048;Laerm;2038;51.728;6.674;2024-02-26T08:39:25;35.83;26.91;39.58;;
4048;Laerm;2038;51.728;6.674;2024-02-26T08:41:52;35.84;26.56;39.21;;
4048;Laerm;2038;51.728;6.674;2024-02-26T08:44:18;35.85;23.90;39.92;;
4048;Laerm;2038;51.728;6.674;2024-02-26T08:46:44;35.82;23.90;39.81;;
4048;Laerm;2038;51.728;6.674;2024-02-26T08:49:12;35.85;26.91;39.08;;
4048;Laerm;2038;51.728;6.674;2024-02-26T08:51:44;35.87;5.00;39.46;;
4048;Laerm;2038;51.728;6.674;2024-02-26T08:54:11;35.81;23.90;39.08;;
4048;Laerm;2038;51.728;6.674;2024-02-26T08:56:37;35.81;26.56;39.46;;
4048;Laerm;2038;51.728;6.674;2024-02-26T08:59:04;35.84;23.90;39.46;;
4048;Laerm;2038;51.728;6.674;2024-02-26T09:01:31;35.83;28.67;39.58;;
4048;Laerm;2038;51.728;6.674;2024-02-26T09:03:58;35.87;23.90;39.21;;
4048;Laerm;2038;51.728;6.674;2024-02-26T09:06:25;35.84;5.00;39.46;;
4048;Laerm;2038;51.728;6.674;2024-02-26T09:08:51;35.85;23.90;39.21;;
4048;Laerm;2038;51.728;6.674;2024-02-26T09:11:17;35.80;23.90;39.21;;
4048;Laerm;2038;51.728;6.674;2024-02-26T09:13:44;35.84;23.90;39.46;;
4048;Laerm;2038;51.728;6.674;2024-02-26T09:16:11;35.82;23.90;39.21;;
4048;Laerm;2038;51.728;6.674;2024-02-26T09:18:37;35.84;26.91;39.34;;
4048;Laerm;2038;51.728;6.674;2024-02-26T09:21:07;35.83;5.00;39.70;;
4048;Laerm;2038;51.728;6.674;2024-02-26T09:23:33;35.84;26.91;39.34;;
4048;Laerm;2038;51.728;6.674;2024-02-26T09:26:01;35.81;23.90;39.70;;
4048;Laerm;2038;51.728;6.674;2024-02-26T09:28:27;35.80;23.90;39.08;;
4048;Laerm;2038;51.728;6.674;2024-02-26T09:30:53;35.83;23.90;39.81;;
4048;Laerm;2038;51.728;6.674;2024-02-26T09:33:20;35.82;23.90;39.34;;
4048;Laerm;2038;51.728;6.674;2024-02-26T09:35:46;35.80;5.00;39.34;;
4048;Laerm;2038;51.728;6.674;2024-02-26T09:38:13;35.81;26.91;39.21;;
4048;Laerm;2038;51.728;6.674;2024-02-26T09:40:40;35.87;26.91;39.34;;
4048;Laerm;2038;51.728;6.674;2024-02-26T09:43:14;35.78;5.00;39.58;;
4048;Laerm;2038;51.728;6.674;2024-02-26T09:45:42;35.81;26.91;39.46;;
4048;Laerm;2038;51.728;6.674;2024-02-26T09:48:10;35.76;26.91;39.46;;
4048;Laerm;2038;51.728;6.674;2024-02-26T09:50:41;35.78;5.00;39.34;;
4048;Laerm;2038;51.728;6.674;2024-02-26T09:53:10;35.83;23.90;39.34;;
4048;Laerm;2038;51.728;6.674;2024-02-26T09:55:37;35.80;23.90;39.46;;
4048;Laerm;2038;51.728;6.674;2024-02-26T09:58:05;35.77;23.90;39.21;;
4048;Laerm;2038;51.728;6.674;2024-02-26T10:00:37;35.80;26.91;39.70;;
4048;Laerm;2038;51.728;6.674;2024-02-26T10:03:09;35.80;26.91;39.08;;
4048;Laerm;2038;51.728;6.674;2024-02-26T10:05:39;35.79;5.00;39.46;;
4048;Laerm;2038;51.728;6.674;2024-02-26T10:08:11;35.74;23.90;39.08;;
4048;Laerm;2038;51.728;6.674;2024-02-26T10:10:39;35.78;26.91;39.34;;
4048;Laerm;2038;51.728;6.674;2024-02-26T10:13:06;35.79;28.67;40.03;;
4048;Laerm;2038;51.728;6.674;2024-02-26T10:15:36;35.79;26.91;39.81;;
4048;Laerm;2038;51.728;6.674;2024-02-26T10:18:06;35.78;26.91;39.21;;
4048;Laerm;2038;51.728;6.674;2024-02-26T10:20:33;35.77;23.90;39.34;;
4048;Laerm;2038;51.728;6.674;2024-02-26T10:23:03;35.80;23.90;39.34;;
4048;Laerm;2038;51.728;6.674;2024-02-26T10:25:29;35.78;23.90;39.34;;
4048;Laerm;2038;51.728;6.674;2024-02-26T10:28:01;35.81;23.90;39.08;;
4048;Laerm;2038;51.728;6.674;2024-02-26T10:30:31;35.76;23.90;39.70;;
4048;Laerm;2038;51.728;6.674;2024-02-26T10:32:57;35.78;23.90;39.21;;
4048;Laerm;2038;51.728;6.674;2024-02-26T10:35:24;35.80;5.00;39.58;;
4048;Laerm;2038;51.728;6.674;2024-02-26T10:37:50;35.77;23.90;39.34;;
4048;Laerm;2038;51.728;6.674;2024-02-26T10:40:17;35.80;5.00;39.21;;
4048;Laerm;2038;51.728;6.674;2024-02-26T10:42:44;35.79;23.90;39.34;;
4048;Laerm;2038;51.728;6.674;2024-02-26T10:45:13;35.81;26.91;39.46;;
4048;Laerm;2038;51.728;6.674;2024-02-26T10:47:41;35.79;23.90;39.08;;
4048;Laerm;2038;51.728;6.674;2024-02-26T10:50:12;35.78;26.91;39.21;;
4048;Laerm;2038;51.728;6.674;2024-02-26T10:52:40;35.78;26.91;39.92;;
4048;Laerm;2038;51.728;6.674;2024-02-26T10:55:16;35.79;23.55;39.58;;
4048;Laerm;2038;51.728;6.674;2024-02-26T10:57:47;35.81;23.90;39.21;;
4048;Laerm;2038;51.728;6.674;2024-02-26T11:00:15;35.76;5.00;39.46;;
4048;Laerm;2038;51.728;6.674;2024-02-26T11:02:44;35.83;26.91;39.34;;
4048;Laerm;2038;51.728;6.674;2024-02-26T11:05:13;35.78;23.90;39.58;;
4048;Laerm;2038;51.728;6.674;2024-02-26T11:07:42;35.82;26.91;39.08;;
4048;Laerm;2038;51.728;6.674;2024-02-26T11:10:11;35.78;26.91;39.34;;
4048;Laerm;2038;51.728;6.674;2024-02-26T11:12:39;35.79;26.91;39.34;;
4048;Laerm;2038;51.728;6.674;2024-02-26T11:15:07;35.80;23.90;39.34;;
4048;Laerm;2038;51.728;6.674;2024-02-26T11:17:35;35.79;23.90;39.58;;
4048;Laerm;2038;51.728;6.674;2024-02-26T11:20:02;35.79;26.91;39.70;;
4048;Laerm;2038;51.728;6.674;2024-02-26T11:22:29;35.81;26.91;39.34;;
4048;Laerm;2038;51.728;6.674;2024-02-26T11:24:56;35.81;26.91;39.70;;
4048;Laerm;2038;51.728;6.674;2024-02-26T11:28:01;35.79;23.90;39.21;;
4048;Laerm;2038;51.728;6.674;2024-02-26T11:30:33;35.78;5.00;39.46;;
4048;Laerm;2038;51.728;6.674;2024-02-26T11:33:02;35.77;23.90;39.81;;
4048;Laerm;2038;51.728;6.674;2024-02-26T11:35:30;35.79;26.91;39.21;;
4048;Laerm;2038;51.728;6.674;2024-02-26T11:37:57;35.77;23.90;39.08;;
4048;Laerm;2038;51.728;6.674;2024-02-26T11:40:27;35.80;26.91;39.21;;
4048;Laerm;2038;51.728;6.674;2024-02-26T11:42:54;35.78;28.67;39.21;;
4048;Laerm;2038;51.728;6.674;2024-02-26T11:48:17;35.78;23.90;39.21;;
4048;Laerm;2038;51.728;6.674;2024-02-26T11:50:57;35.78;23.90;39.21;;
4048;Laerm;2038;51.728;6.674;2024-02-26T11:53:26;35.79;23.55;40.03;;
4048;Laerm;2038;51.728;6.674;2024-02-26T11:58:45;35.83;26.91;39.11;;
4048;Laerm;2038;51.728;6.674;2024-02-26T12:01:39;35.80;23.90;39.34;;
4048;Laerm;2038;51.728;6.674;2024-02-26T12:04:17;35.79;26.91;39.46;;
4048;Laerm;2038;51.728;6.674;2024-02-26T12:06:55;35.78;26.91;39.08;;
4048;Laerm;2038;51.728;6.674;2024-02-26T12:09:41;35.79;26.91;39.46;;
4048;Laerm;2038;51.728;6.674;2024-02-26T12:12:10;35.81;26.91;39.34;;
4048;Laerm;2038;51.728;6.674;2024-02-26T12:14:50;35.79;23.90;39.34;;
4048;Laerm;2038;51.728;6.674;2024-02-26T12:17:25;35.79;23.90;39.46;;
4048;Laerm;2038;51.728;6.674;2024-02-26T12:19:52;35.82;23.90;39.70;;
4048;Laerm;2038;51.728;6.674;2024-02-26T12:22:20;35.82;26.91;39.34;;
4048;Laerm;2038;51.728;6.674;2024-02-26T12:24:46;35.80;28.32;39.34;;
4048;Laerm;2038;51.728;6.674;2024-02-26T12:27:12;35.78;23.90;39.34;;
4048;Laerm;2038;51.728;6.674;2024-02-26T12:29:40;35.76;26.91;39.34;;
4048;Laerm;2038;51.728;6.674;2024-02-26T12:32:07;35.77;23.90;39.34;;
4048;Laerm;2038;51.728;6.674;2024-02-26T12:34:33;35.80;23.90;39.46;;
4048;Laerm;2038;51.728;6.674;2024-02-26T12:37:00;35.82;26.91;39.34;;
4048;Laerm;2038;51.728;6.674;2024-02-26T12:39:27;35.78;23.90;39.08;;
4048;Laerm;2038;51.728;6.674;2024-02-26T12:41:54;35.76;26.91;39.34;;
4048;Laerm;2038;51.728;6.674;2024-02-26T12:44:27;35.78;23.90;39.58;;
4048;Laerm;2038;51.728;6.674;2024-02-26T12:47:01;35.77;5.00;39.21;;
4048;Laerm;2038;51.728;6.674;2024-02-26T12:49:29;35.77;26.56;39.21;;
4048;Laerm;2038;51.728;6.674;2024-02-26T12:51:55;35.81;23.90;39.46;;
4048;Laerm;2038;51.728;6.674;2024-02-26T12:54:29;35.82;26.91;39.21;;
4048;Laerm;2038;51.728;6.674;2024-02-26T12:56:59;35.81;23.90;39.21;;
4048;Laerm;2038;51.728;6.674;2024-02-26T12:59:26;35.80;23.90;39.34;;
4048;Laerm;2038;51.728;6.674;2024-02-26T13:01:53;35.81;23.90;39.21;;
4048;Laerm;2038;51.728;6.674;2024-02-26T13:04:19;35.82;5.00;39.81;;
4048;Laerm;2038;51.728;6.674;2024-02-26T13:06:46;35.82;23.90;39.70;;
4048;Laerm;2038;51.728;6.674;2024-02-26T13:09:13;35.77;23.90;39.34;;
4048;Laerm;2038;51.728;6.674;2024-02-26T13:11:40;35.80;26.56;39.34;;
4048;Laerm;2038;51.728;6.674;2024-02-26T13:14:06;35.81;26.91;39.08;;
4048;Laerm;2038;51.728;6.674;2024-02-26T13:16:33;35.82;23.90;39.08;;
4048;Laerm;2038;51.728;6.674;2024-02-26T13:19:11;35.84;26.91;39.21;;
4048;Laerm;2038;51.728;6.674;2024-02-26T13:21:38;35.83;23.90;39.21;;
4048;Laerm;2038;51.728;6.674;2024-02-26T13:24:06;35.84;5.00;39.46;;
4048;Laerm;2038;51.728;6.674;2024-02-26T13:26:32;35.79;23.90;38.95;;
4048;Laerm;2038;51.728;6.674;2024-02-26T13:29:02;35.78;23.90;39.21;;
4048;Laerm;2038;51.728;6.674;2024-02-26T13:31:38;35.79;28.67;39.34;;
4048;Laerm;2038;51.728;6.674;2024-02-26T13:34:05;35.77;26.91;39.58;;
4048;Laerm;2038;51.728;6.674;2024-02-26T13:36:31;35.77;26.91;39.34;;
4048;Laerm;2038;51.728;6.674;2024-02-26T13:38:57;35.78;26.91;39.34;;
4048;Laerm;2038;51.728;6.674;2024-02-26T13:41:24;35.81;23.90;39.34;;
4048;Laerm;2038;51.728;6.674;2024-02-26T13:43:51;35.82;23.90;39.21;;
4048;Laerm;2038;51.728;6.674;2024-02-26T13:46:17;35.77;28.67;39.46;;
4048;Laerm;2038;51.728;6.674;2024-02-26T13:48:44;35.78;26.91;39.46;;
4048;Laerm;2038;51.728;6.674;2024-02-26T13:51:10;35.81;23.90;39.21;;
4048;Laerm;2038;51.728;6.674;2024-02-26T13:53:36;35.78;23.90;39.21;;
4048;Laerm;2038;51.728;6.674;2024-02-26T13:56:03;35.79;26.91;39.46;;
4048;Laerm;2038;51.728;6.674;2024-02-26T13:58:31;35.76;5.00;39.08;;
4048;Laerm;2038;51.728;6.674;2024-02-26T14:00:58;35.78;26.91;39.21;;
4048;Laerm;2038;51.728;6.674;2024-02-26T14:03:25;35.78;23.90;39.81;;
4048;Laerm;2038;51.728;6.674;2024-02-26T14:05:52;35.75;23.55;39.11;;
4048;Laerm;2038;51.728;6.674;2024-02-26T14:08:19;35.81;23.90;39.34;;
4048;Laerm;2038;51.728;6.674;2024-02-26T14:10:45;35.81;23.90;39.34;;
4048;Laerm;2038;51.728;6.674;2024-02-26T14:13:11;35.79;23.90;39.46;;
4048;Laerm;2038;51.728;6.674;2024-02-26T14:15:38;35.77;26.91;39.46;;